Aeroporto :







RITROVATECI SU...

 
LOGIN :

Iscrizione | Disclaimer

   EN    FR    IT 

 









Sommario :    VFR   VFR Marginale   IFR   IFR Intensivo   IFR Molto Intensivo
Visibilità : 
Base nubi : 
>= 8 km
>= 3000ft
5 / 8 km
1000 / 3000 ft
1500m / 5 km
500 / 1000 ft
800 / 1500m
200 / 500 ft
< 800m
< 200 ft
Simboli :   Temporali  Nebbia  Neve Forte  Precipitazioni Forti  Vento > 20 kt







- Altitudine del aeroporto : 39 ft
- Codice IATA : YNA


CYNA - Natashquan

ULTIMO METAR :
  • 241900Z AUTO 07020G26KT 9SM FEW120 04/M05 A2994 RMK SLP140

METARs OBSOLETI :
  • 241800Z AUTO 06019G24KT 9SM SCT120 BKN140 04/M05 A2995 RMK SLP143
  • 241700Z AUTO 07020KT 9SM FEW065 BKN120 04/M04 A2994 RMK SLP141

TAF TAF CYNA
Valido dal 24 a 20 ore il 25 a 08 ore UTC


241942Z 2420/2508 06015G25KT P6SM BKN120
BECMG 2422/2424 07015KT
BECMG 2502/2504 07015G25KT RMK FCST BASED ON AUTO OBS. NXT FCST BY 250200Z
FIR CZUL / America del Nord



MetMap, La meteo Aeronautica in un colpo d'occhio ! - Copyright ORBIFLY Dicembre 2007 - Disclaimer

ORBIFLY MET'MAP TEAM :

Programmazione e sviluppo : Alexandra Zaïnal
Concezione e sviluppo : Baudouin d'Aumeries
Co-Programmazione e sviluppo : Marc-Olivier Méhu
Supporto tecnico e logistico : Manuel Goepfert
Aiuto per la traduzione : Arnaldo La Scala

Contatto : metmap@orbifly.com




FONTI E CREDITI :

   NOAA